sensor_id;sensor_type;location;lat;lon;timestamp;pressure;altitude;pressure_sealevel;temperature;humidity
26657;BME280;14279;50.010;8.260;2023-02-28T00:02:18;101577.09;;;2.17;54.17
26657;BME280;14279;50.010;8.260;2023-02-28T00:04:44;101579.72;;;2.23;54.00
26657;BME280;14279;50.010;8.260;2023-02-28T00:07:09;101578.03;;;2.25;53.77
26657;BME280;14279;50.010;8.260;2023-02-28T00:09:34;101582.19;;;2.14;53.76
26657;BME280;14279;50.010;8.260;2023-02-28T00:12:00;101575.53;;;2.36;53.52
26657;BME280;14279;50.010;8.260;2023-02-28T00:14:25;101573.69;;;2.16;54.00
26657;BME280;14279;50.010;8.260;2023-02-28T00:16:50;101569.47;;;2.26;54.08
26657;BME280;14279;50.010;8.260;2023-02-28T00:19:15;101566.91;;;2.29;53.82
26657;BME280;14279;50.010;8.260;2023-02-28T00:21:40;101567.84;;;2.40;54.67
26657;BME280;14279;50.010;8.260;2023-02-28T00:24:06;101570.44;;;2.44;54.70
26657;BME280;14279;50.010;8.260;2023-02-28T00:26:32;101573.78;;;2.32;54.71
26657;BME280;14279;50.010;8.260;2023-02-28T00:28:57;101569.56;;;2.40;54.49
26657;BME280;14279;50.010;8.260;2023-02-28T00:31:22;101577.34;;;2.48;54.77
26657;BME280;14279;50.010;8.260;2023-02-28T00:33:47;101574.59;;;2.29;55.50
26657;BME280;14279;50.010;8.260;2023-02-28T00:36:13;101566.88;;;2.23;55.65
26657;BME280;14279;50.010;8.260;2023-02-28T00:38:39;101573.00;;;2.44;54.98
26657;BME280;14279;50.010;8.260;2023-02-28T00:41:05;101571.38;;;2.52;55.16
26657;BME280;14279;50.010;8.260;2023-02-28T00:43:33;101567.00;;;2.43;55.01
26657;BME280;14279;50.010;8.260;2023-02-28T00:45:59;101574.78;;;2.54;55.24
26657;BME280;14279;50.010;8.260;2023-02-28T00:48:24;101569.50;;;2.31;55.66
26657;BME280;14279;50.010;8.260;2023-02-28T00:50:50;101570.34;;;2.30;55.93
26657;BME280;14279;50.010;8.260;2023-02-28T00:53:15;101565.09;;;2.17;55.62
26657;BME280;14279;50.010;8.260;2023-02-28T00:55:40;101562.44;;;2.03;56.59
26657;BME280;14279;50.010;8.260;2023-02-28T00:58:05;101569.41;;;2.21;56.46
26657;BME280;14279;50.010;8.260;2023-02-28T01:00:31;101559.94;;;2.16;56.34
26657;BME280;14279;50.010;8.260;2023-02-28T01:02:56;101567.59;;;2.09;56.36
26657;BME280;14279;50.010;8.260;2023-02-28T01:05:21;101565.91;;;2.10;56.17
26657;BME280;14279;50.010;8.260;2023-02-28T01:07:46;101570.28;;;2.23;56.60
26657;BME280;14279;50.010;8.260;2023-02-28T01:10:12;101571.06;;;2.13;56.57
26657;BME280;14279;50.010;8.260;2023-02-28T01:12:37;101575.31;;;2.08;57.39
26657;BME280;14279;50.010;8.260;2023-02-28T01:15:04;101569.19;;;1.95;57.30
26657;BME280;14279;50.010;8.260;2023-02-28T01:17:29;101570.91;;;1.94;58.30
26657;BME280;14279;50.010;8.260;2023-02-28T01:19:55;101564.97;;;2.02;57.54
26657;BME280;14279;50.010;8.260;2023-02-28T01:22:20;101567.56;;;2.03;57.76
26657;BME280;14279;50.010;8.260;2023-02-28T01:24:46;101569.28;;;2.07;57.76
26657;BME280;14279;50.010;8.260;2023-02-28T01:27:11;101561.50;;;1.95;57.75
26657;BME280;14279;50.010;8.260;2023-02-28T01:29:36;101565.81;;;1.99;58.24
26657;BME280;14279;50.010;8.260;2023-02-28T01:32:01;101563.25;;;2.01;57.94
26657;BME280;14279;50.010;8.260;2023-02-28T01:34:27;101559.00;;;2.03;58.29
26657;BME280;14279;50.010;8.260;2023-02-28T01:36:52;101556.47;;;2.04;58.25
26657;BME280;14279;50.010;8.260;2023-02-28T01:39:17;101558.09;;;1.98;58.09
26657;BME280;14279;50.010;8.260;2023-02-28T01:41:43;101557.13;;;1.83;59.10
26657;BME280;14279;50.010;8.260;2023-02-28T01:47:11;101553.63;;;1.76;60.10
26657;BME280;14279;50.010;8.260;2023-02-28T01:49:37;101550.31;;;1.90;59.70
26657;BME280;14279;50.010;8.260;2023-02-28T01:52:02;101546.03;;;1.89;59.77
26657;BME280;14279;50.010;8.260;2023-02-28T01:54:31;101548.59;;;1.87;60.06
26657;BME280;14279;50.010;8.260;2023-02-28T01:57:05;101544.25;;;1.78;60.42
26657;BME280;14279;50.010;8.260;2023-02-28T01:59:40;101545.94;;;1.78;60.71
26657;BME280;14279;50.010;8.260;2023-02-28T02:02:18;101556.19;;;1.76;60.43
26657;BME280;14279;50.010;8.260;2023-02-28T02:04:57;101551.03;;;1.73;61.27
26657;BME280;14279;50.010;8.260;2023-02-28T02:07:24;101544.94;;;1.63;61.01
26657;BME280;14279;50.010;8.260;2023-02-28T02:10:00;101546.72;;;1.68;61.42
26657;BME280;14279;50.010;8.260;2023-02-28T02:15:26;101541.44;;;1.55;61.87
26657;BME280;14279;50.010;8.260;2023-02-28T02:17:57;101545.78;;;1.62;62.00
26657;BME280;14279;50.010;8.260;2023-02-28T02:20:43;101534.53;;;1.49;61.84
26657;BME280;14279;50.010;8.260;2023-02-28T02:25:56;101539.84;;;1.70;61.76
26657;BME280;14279;50.010;8.260;2023-02-28T02:34:05;101543.13;;;1.53;61.44
26657;BME280;14279;50.010;8.260;2023-02-28T02:36:38;101537.88;;;1.41;62.09
26657;BME280;14279;50.010;8.260;2023-02-28T02:39:21;101539.63;;;1.48;61.91
26657;BME280;14279;50.010;8.260;2023-02-28T02:41:52;101543.78;;;1.35;61.62
26657;BME280;14279;50.010;8.260;2023-02-28T02:44:22;101536.13;;;1.38;61.93
26657;BME280;14279;50.010;8.260;2023-02-28T02:46:51;101540.47;;;1.44;62.01
26657;BME280;14279;50.010;8.260;2023-02-28T02:49:24;101538.75;;;1.46;61.31
26657;BME280;14279;50.010;8.260;2023-02-28T02:51:53;101541.31;;;1.43;61.97
26657;BME280;14279;50.010;8.260;2023-02-28T02:54:31;101549.03;;;1.43;61.45
26657;BME280;14279;50.010;8.260;2023-02-28T02:57:01;101539.50;;;1.32;61.79
26657;BME280;14279;50.010;8.260;2023-02-28T02:59:28;101543.72;;;1.29;61.50
26657;BME280;14279;50.010;8.260;2023-02-28T03:01:57;101543.81;;;1.37;61.35
26657;BME280;14279;50.010;8.260;2023-02-28T03:04:28;101545.50;;;1.36;61.75
26657;BME280;14279;50.010;8.260;2023-02-28T03:06:55;101538.69;;;1.38;61.29
26657;BME280;14279;50.010;8.260;2023-02-28T03:09:25;101543.66;;;1.24;61.34
26657;BME280;14279;50.010;8.260;2023-02-28T03:11:52;101537.53;;;1.10;61.72
26657;BME280;14279;50.010;8.260;2023-02-28T03:14:25;101534.34;;;1.31;61.13
26657;BME280;14279;50.010;8.260;2023-02-28T03:22:51;101533.31;;;1.16;60.86
26657;BME280;14279;50.010;8.260;2023-02-28T03:25:20;101535.00;;;1.13;60.76
26657;BME280;14279;50.010;8.260;2023-02-28T03:30:41;101535.06;;;1.20;60.82
26657;BME280;14279;50.010;8.260;2023-02-28T03:33:26;101532.47;;;1.17;60.19
26657;BME280;14279;50.010;8.260;2023-02-28T03:36:01;101529.03;;;1.15;60.63
26657;BME280;14279;50.010;8.260;2023-02-28T03:38:41;101532.50;;;1.20;60.54
26657;BME280;14279;50.010;8.260;2023-02-28T03:41:19;101534.91;;;1.05;60.39
26657;BME280;14279;50.010;8.260;2023-02-28T03:44:13;101537.47;;;1.07;60.60
26657;BME280;14279;50.010;8.260;2023-02-28T03:46:46;101528.16;;;1.13;60.16
26657;BME280;14279;50.010;8.260;2023-02-28T03:49:18;101534.06;;;1.09;60.10
26657;BME280;14279;50.010;8.260;2023-02-28T03:51:46;101537.53;;;1.10;59.86
26657;BME280;14279;50.010;8.260;2023-02-28T03:54:16;101536.75;;;1.17;59.85
26657;BME280;14279;50.010;8.260;2023-02-28T03:56:52;101535.03;;;1.17;59.54
26657;BME280;14279;50.010;8.260;2023-02-28T03:59:24;101538.44;;;1.15;59.84
26657;BME280;14279;50.010;8.260;2023-02-28T04:01:51;101534.06;;;1.09;59.35
26657;BME280;14279;50.010;8.260;2023-02-28T04:04:17;101539.19;;;1.08;60.04
26657;BME280;14279;50.010;8.260;2023-02-28T04:06:43;101534.91;;;1.05;59.58
26657;BME280;14279;50.010;8.260;2023-02-28T04:09:12;101531.56;;;1.11;59.80
26657;BME280;14279;50.010;8.260;2023-02-28T04:11:40;101539.94;;;0.99;59.66
26657;BME280;14279;50.010;8.260;2023-02-28T04:14:07;101535.78;;;1.09;59.18
26657;BME280;14279;50.010;8.260;2023-02-28T04:16:34;101537.56;;;1.14;59.33
26657;BME280;14279;50.010;8.260;2023-02-28T04:19:00;101545.97;;;1.02;58.55
26657;BME280;14279;50.010;8.260;2023-02-28T04:21:34;101545.25;;;1.13;58.29
26657;BME280;14279;50.010;8.260;2023-02-28T04:24:00;101550.16;;;0.97;58.75
26657;BME280;14279;50.010;8.260;2023-02-28T04:26:34;101547.09;;;1.26;58.28
26657;BME280;14279;50.010;8.260;2023-02-28T04:29:00;101547.81;;;1.13;57.82
26657;BME280;14279;50.010;8.260;2023-02-28T04:31:26;101540.16;;;1.16;57.97
26657;BME280;14279;50.010;8.260;2023-02-28T04:33:51;101541.50;;;0.87;58.12
26657;BME280;14279;50.010;8.260;2023-02-28T04:36:17;101540.22;;;1.20;57.70
26657;BME280;14279;50.010;8.260;2023-02-28T04:38:44;101552.91;;;1.10;57.64
26657;BME280;14279;50.010;8.260;2023-02-28T04:41:10;101547.06;;;1.20;57.35
26657;BME280;14279;50.010;8.260;2023-02-28T04:43:35;101546.94;;;1.12;57.49
26657;BME280;14279;50.010;8.260;2023-02-28T04:46:02;101544.50;;;1.20;57.40
26657;BME280;14279;50.010;8.260;2023-02-28T04:48:30;101538.47;;;1.18;56.75
26657;BME280;14279;50.010;8.260;2023-02-28T04:51:00;101541.81;;;1.12;57.34
26657;BME280;14279;50.010;8.260;2023-02-28T04:53:25;101539.13;;;1.00;57.22
26657;BME280;14279;50.010;8.260;2023-02-28T04:55:50;101537.47;;;1.07;57.39
26657;BME280;14279;50.010;8.260;2023-02-28T04:58:16;101535.78;;;1.07;56.60
26657;BME280;14279;50.010;8.260;2023-02-28T05:00:41;101537.50;;;1.08;57.28
26657;BME280;14279;50.010;8.260;2023-02-28T05:03:07;101531.44;;;1.01;57.79
26657;BME280;14279;50.010;8.260;2023-02-28T05:05:32;101534.75;;;0.93;57.11
26657;BME280;14279;50.010;8.260;2023-02-28T05:07:57;101538.31;;;1.04;57.15
26657;BME280;14279;50.010;8.260;2023-02-28T05:10:23;101528.53;;;0.77;57.57
26657;BME280;14279;50.010;8.260;2023-02-28T05:12:48;101535.56;;;0.90;57.16
26657;BME280;14279;50.010;8.260;2023-02-28T05:15:14;101540.78;;;0.98;57.44
26657;BME280;14279;50.010;8.260;2023-02-28T05:17:40;101550.16;;;0.96;57.53
26657;BME280;14279;50.010;8.260;2023-02-28T05:20:06;101534.78;;;0.97;57.54
26657;BME280;14279;50.010;8.260;2023-02-28T05:22:33;101539.91;;;0.96;57.10
26657;BME280;14279;50.010;8.260;2023-02-28T05:24:59;101545.75;;;0.85;57.34
26657;BME280;14279;50.010;8.260;2023-02-28T05:27:24;101536.28;;;0.80;56.99
26657;BME280;14279;50.010;8.260;2023-02-28T05:29:50;101539.81;;;0.88;57.29
26657;BME280;14279;50.010;8.260;2023-02-28T05:32:15;101545.56;;;0.70;57.68
26657;BME280;14279;50.010;8.260;2023-02-28T05:34:40;101549.97;;;0.82;57.93
26657;BME280;14279;50.010;8.260;2023-02-28T05:37:07;101556.09;;;0.92;57.42
26657;BME280;14279;50.010;8.260;2023-02-28T05:39:35;101556.03;;;0.88;57.46
26657;BME280;14279;50.010;8.260;2023-02-28T05:42:01;101555.28;;;0.96;57.54
26657;BME280;14279;50.010;8.260;2023-02-28T05:44:26;101550.88;;;0.82;57.66
26657;BME280;14279;50.010;8.260;2023-02-28T05:46:51;101553.38;;;0.79;57.40
26657;BME280;14279;50.010;8.260;2023-02-28T05:49:16;101543.38;;;0.99;57.45
26657;BME280;14279;50.010;8.260;2023-02-28T05:51:42;101554.53;;;1.04;57.14
26657;BME280;14279;50.010;8.260;2023-02-28T05:54:07;101554.31;;;0.87;57.21
26657;BME280;14279;50.010;8.260;2023-02-28T05:56:32;101559.63;;;1.01;57.26
26657;BME280;14279;50.010;8.260;2023-02-28T05:59:00;101552.78;;;0.99;57.28
26657;BME280;14279;50.010;8.260;2023-02-28T06:01:54;101554.06;;;0.67;57.83
26657;BME280;14279;50.010;8.260;2023-02-28T06:04:20;101555.16;;;0.86;57.28
26657;BME280;14279;50.010;8.260;2023-02-28T06:06:49;101552.34;;;0.68;57.88
26657;BME280;14279;50.010;8.260;2023-02-28T06:09:15;101556.78;;;0.78;57.48
26657;BME280;14279;50.010;8.260;2023-02-28T06:11:41;101562.84;;;0.86;57.59
26657;BME280;14279;50.010;8.260;2023-02-28T06:14:07;101560.09;;;0.69;57.95
26657;BME280;14279;50.010;8.260;2023-02-28T06:16:34;101567.69;;;0.65;58.13
26657;BME280;14279;50.010;8.260;2023-02-28T06:19:02;101571.28;;;0.76;57.77
26657;BME280;14279;50.010;8.260;2023-02-28T06:21:28;101566.09;;;0.74;57.38
26657;BME280;14279;50.010;8.260;2023-02-28T06:23:53;101569.47;;;0.69;58.05
26657;BME280;14279;50.010;8.260;2023-02-28T06:26:20;101570.28;;;0.66;57.78
26657;BME280;14279;50.010;8.260;2023-02-28T06:28:46;101573.06;;;0.82;57.64
26657;BME280;14279;50.010;8.260;2023-02-28T06:31:14;101572.13;;;0.77;57.43
26657;BME280;14279;50.010;8.260;2023-02-28T06:33:40;101575.47;;;0.72;57.40
26657;BME280;14279;50.010;8.260;2023-02-28T06:36:06;101575.66;;;0.85;57.31
26657;BME280;14279;50.010;8.260;2023-02-28T06:38:32;101574.09;;;0.95;57.08
26657;BME280;14279;50.010;8.260;2023-02-28T06:40:59;101576.78;;;1.04;56.56
26657;BME280;14279;50.010;8.260;2023-02-28T06:43:28;101573.19;;;0.91;56.89
26657;BME280;14279;50.010;8.260;2023-02-28T06:45:54;101575.25;;;1.18;56.41
26657;BME280;14279;50.010;8.260;2023-02-28T06:48:20;101586.34;;;1.16;56.75
26657;BME280;14279;50.010;8.260;2023-02-28T06:50:45;101576.13;;;1.20;55.91
26657;BME280;14279;50.010;8.260;2023-02-28T06:53:11;101585.91;;;0.85;55.36
26657;BME280;14279;50.010;8.260;2023-02-28T06:55:38;101582.84;;;1.12;55.14
26657;BME280;14279;50.010;8.260;2023-02-28T06:58:03;101593.22;;;1.22;54.94
26657;BME280;14279;50.010;8.260;2023-02-28T07:00:43;101591.63;;;1.30;53.88
26657;BME280;14279;50.010;8.260;2023-02-28T07:03:10;101595.88;;;1.28;54.03
26657;BME280;14279;50.010;8.260;2023-02-28T07:05:36;101594.00;;;1.14;53.68
26657;BME280;14279;50.010;8.260;2023-02-28T07:08:03;101594.22;;;1.31;53.42
26657;BME280;14279;50.010;8.260;2023-02-28T07:10:29;101599.34;;;1.31;52.21
26657;BME280;14279;50.010;8.260;2023-02-28T07:12:54;101591.75;;;1.42;51.39
26657;BME280;14279;50.010;8.260;2023-02-28T07:15:20;101592.66;;;1.44;51.93
26657;BME280;14279;50.010;8.260;2023-02-28T07:17:45;101602.81;;;1.38;51.27
26657;BME280;14279;50.010;8.260;2023-02-28T07:20:10;101596.97;;;1.50;51.13
26657;BME280;14279;50.010;8.260;2023-02-28T07:22:36;101604.91;;;1.70;50.89
26657;BME280;14279;50.010;8.260;2023-02-28T07:25:04;101604.13;;;1.79;50.60
26657;BME280;14279;50.010;8.260;2023-02-28T07:27:30;101597.38;;;1.87;50.35
26657;BME280;14279;50.010;8.260;2023-02-28T07:29:55;101604.97;;;1.76;51.02
26657;BME280;14279;50.010;8.260;2023-02-28T07:32:21;101604.03;;;1.68;50.86
26657;BME280;14279;50.010;8.260;2023-02-28T07:34:46;101607.44;;;1.67;50.19
26657;BME280;14279;50.010;8.260;2023-02-28T07:37:11;101605.59;;;1.54;50.39
26657;BME280;14279;50.010;8.260;2023-02-28T07:39:37;101606.34;;;1.46;50.79
26657;BME280;14279;50.010;8.260;2023-02-28T07:42:06;101605.75;;;1.71;50.20
26657;BME280;14279;50.010;8.260;2023-02-28T07:44:34;101603.47;;;1.99;50.00
26657;BME280;14279;50.010;8.260;2023-02-28T07:46:59;101599.88;;;1.83;50.20
26657;BME280;14279;50.010;8.260;2023-02-28T07:49:24;101601.78;;;1.99;49.90
26657;BME280;14279;50.010;8.260;2023-02-28T07:51:50;101599.06;;;1.87;50.29
26657;BME280;14279;50.010;8.260;2023-02-28T07:54:15;101601.88;;;2.10;49.30
26657;BME280;14279;50.010;8.260;2023-02-28T07:56:40;101599.31;;;2.10;49.56
26657;BME280;14279;50.010;8.260;2023-02-28T07:59:06;101610.50;;;2.15;49.50
26657;BME280;14279;50.010;8.260;2023-02-28T08:01:31;101611.25;;;2.06;50.20
26657;BME280;14279;50.010;8.260;2023-02-28T08:03:56;101613.03;;;2.12;49.54
26657;BME280;14279;50.010;8.260;2023-02-28T08:06:23;101603.75;;;2.28;49.73
26657;BME280;14279;50.010;8.260;2023-02-28T08:08:49;101614.81;;;2.21;49.43
26657;BME280;14279;50.010;8.260;2023-02-28T08:11:15;101607.84;;;2.10;49.52
26657;BME280;14279;50.010;8.260;2023-02-28T08:13:41;101619.81;;;2.07;50.09
26657;BME280;14279;50.010;8.260;2023-02-28T08:16:07;101605.34;;;2.15;50.29
26657;BME280;14279;50.010;8.260;2023-02-28T08:18:33;101620.91;;;2.35;49.36
26657;BME280;14279;50.010;8.260;2023-02-28T08:20:58;101619.38;;;2.59;49.46
26657;BME280;14279;50.010;8.260;2023-02-28T08:23:24;101620.28;;;2.63;49.69
26657;BME280;14279;50.010;8.260;2023-02-28T08:25:56;101619.28;;;2.44;49.58
26657;BME280;14279;50.010;8.260;2023-02-28T08:28:22;101611.59;;;2.48;49.08
26657;BME280;14279;50.010;8.260;2023-02-28T08:30:47;101619.19;;;2.33;50.04
26657;BME280;14279;50.010;8.260;2023-02-28T08:33:12;101615.84;;;2.43;49.34
26657;BME280;14279;50.010;8.260;2023-02-28T08:35:37;101609.72;;;2.30;49.25
26657;BME280;14279;50.010;8.260;2023-02-28T08:38:03;101611.63;;;2.50;49.23
26657;BME280;14279;50.010;8.260;2023-02-28T08:40:28;101606.44;;;2.45;49.07
26657;BME280;14279;50.010;8.260;2023-02-28T08:42:53;101613.44;;;2.65;49.12
26657;BME280;14279;50.010;8.260;2023-02-28T08:45:18;101619.31;;;2.48;50.05
26657;BME280;14279;50.010;8.260;2023-02-28T08:47:44;101614.69;;;2.07;49.99
26657;BME280;14279;50.010;8.260;2023-02-28T08:50:09;101602.06;;;2.33;50.24
26657;BME280;14279;50.010;8.260;2023-02-28T08:52:35;101602.19;;;2.50;48.95
26657;BME280;14279;50.010;8.260;2023-02-28T08:55:00;101626.00;;;2.29;49.44
26657;BME280;14279;50.010;8.260;2023-02-28T08:57:25;101617.59;;;2.46;49.08
26657;BME280;14279;50.010;8.260;2023-02-28T08:59:51;101614.31;;;2.68;48.90
26657;BME280;14279;50.010;8.260;2023-02-28T09:02:17;101616.94;;;2.78;48.74
26657;BME280;14279;50.010;8.260;2023-02-28T09:04:42;101608.34;;;2.73;48.16
26657;BME280;14279;50.010;8.260;2023-02-28T09:07:10;101609.38;;;3.01;48.00
26657;BME280;14279;50.010;8.260;2023-02-28T09:09:35;101616.16;;;2.90;48.20
26657;BME280;14279;50.010;8.260;2023-02-28T09:12:01;101618.75;;;2.93;47.75
26657;BME280;14279;50.010;8.260;2023-02-28T09:14:27;101607.56;;;2.84;47.99
26657;BME280;14279;50.010;8.260;2023-02-28T09:16:52;101604.06;;;2.72;47.52
26657;BME280;14279;50.010;8.260;2023-02-28T09:19:17;101594.63;;;2.72;47.64
26657;BME280;14279;50.010;8.260;2023-02-28T09:21:42;101597.28;;;2.91;47.23
26657;BME280;14279;50.010;8.260;2023-02-28T09:24:07;101596.44;;;2.89;47.65
26657;BME280;14279;50.010;8.260;2023-02-28T09:26:33;101597.34;;;2.95;46.74
26657;BME280;14279;50.010;8.260;2023-02-28T09:28:59;101591.41;;;3.13;46.94
26657;BME280;14279;50.010;8.260;2023-02-28T09:31:26;101605.84;;;2.85;45.34
26657;BME280;14279;50.010;8.260;2023-02-28T09:33:55;101604.38;;;3.37;45.07
26657;BME280;14279;50.010;8.260;2023-02-28T09:36:21;101609.50;;;3.34;44.98
26657;BME280;14279;50.010;8.260;2023-02-28T09:38:47;101607.03;;;3.58;45.08
26657;BME280;14279;50.010;8.260;2023-02-28T09:41:17;101606.97;;;3.49;44.66
26657;BME280;14279;50.010;8.260;2023-02-28T09:43:47;101602.75;;;3.59;44.31
26657;BME280;14279;50.010;8.260;2023-02-28T09:46:25;101605.34;;;3.70;44.27
26657;BME280;14279;50.010;8.260;2023-02-28T09:48:53;101594.88;;;3.22;44.43
26657;BME280;14279;50.010;8.260;2023-02-28T09:51:40;101606.72;;;2.92;44.49
26657;BME280;14279;50.010;8.260;2023-02-28T09:54:16;101601.69;;;3.07;44.43
26657;BME280;14279;50.010;8.260;2023-02-28T09:56:49;101617.22;;;3.26;44.02
26657;BME280;14279;50.010;8.260;2023-02-28T09:59:38;101605.97;;;3.10;43.93
26657;BME280;14279;50.010;8.260;2023-02-28T10:02:33;101610.34;;;3.29;43.57
26657;BME280;14279;50.010;8.260;2023-02-28T10:05:11;101616.31;;;3.21;43.91
26657;BME280;14279;50.010;8.260;2023-02-28T10:07:56;101621.38;;;3.04;43.90
26657;BME280;14279;50.010;8.260;2023-02-28T10:10:37;101612.03;;;3.20;43.37
26657;BME280;14279;50.010;8.260;2023-02-28T10:13:06;101604.41;;;3.48;42.76
26657;BME280;14279;50.010;8.260;2023-02-28T10:15:38;101603.63;;;3.75;42.26
26657;BME280;14279;50.010;8.260;2023-02-28T10:18:05;101613.91;;;3.67;42.46
26657;BME280;14279;50.010;8.260;2023-02-28T10:20:37;101604.50;;;3.80;42.48
26657;BME280;14279;50.010;8.260;2023-02-28T10:25:37;101612.22;;;3.79;41.72
26657;BME280;14279;50.010;8.260;2023-02-28T10:28:11;101612.19;;;3.66;41.77
26657;BME280;14279;50.010;8.260;2023-02-28T10:30:44;101609.59;;;3.58;41.44
26657;BME280;14279;50.010;8.260;2023-02-28T10:35:42;101612.25;;;4.02;41.57
26657;BME280;14279;50.010;8.260;2023-02-28T10:38:15;101594.22;;;4.24;41.27
26657;BME280;14279;50.010;8.260;2023-02-28T10:40:41;101598.53;;;4.20;42.02
26657;BME280;14279;50.010;8.260;2023-02-28T10:45:37;101596.81;;;4.38;40.75
26657;BME280;14279;50.010;8.260;2023-02-28T10:53:23;101608.81;;;3.80;41.46
26657;BME280;14279;50.010;8.260;2023-02-28T10:56:25;101604.53;;;3.89;41.82
26657;BME280;14279;50.010;8.260;2023-02-28T11:01:43;101603.69;;;4.12;41.94
26657;BME280;14279;50.010;8.260;2023-02-28T11:07:04;101599.41;;;4.14;41.09
26657;BME280;14279;50.010;8.260;2023-02-28T11:09:34;101599.41;;;4.20;40.84
26657;BME280;14279;50.010;8.260;2023-02-28T11:12:01;101584.78;;;4.32;41.10
26657;BME280;14279;50.010;8.260;2023-02-28T11:14:33;101583.91;;;4.47;40.80
26657;BME280;14279;50.010;8.260;2023-02-28T11:17:13;101594.22;;;4.30;40.95
26657;BME280;14279;50.010;8.260;2023-02-28T11:19:45;101585.66;;;4.34;41.13
26657;BME280;14279;50.010;8.260;2023-02-28T11:22:18;101583.91;;;4.48;40.51
26657;BME280;14279;50.010;8.260;2023-02-28T11:24:48;101572.69;;;4.80;40.06
26657;BME280;14279;50.010;8.260;2023-02-28T11:29:56;101565.84;;;4.55;39.82
26657;BME280;14279;50.010;8.260;2023-02-28T11:32:23;101567.59;;;4.09;40.54
26657;BME280;14279;50.010;8.260;2023-02-28T11:37:35;101571.03;;;4.34;40.11
26657;BME280;14279;50.010;8.260;2023-02-28T11:40:00;101570.19;;;4.37;40.07
26657;BME280;14279;50.010;8.260;2023-02-28T11:42:42;101559.00;;;4.49;39.90
26657;BME280;14279;50.010;8.260;2023-02-28T11:48:21;101558.03;;;4.84;39.14
26657;BME280;14279;50.010;8.260;2023-02-28T11:51:08;101562.41;;;4.49;39.61
26657;BME280;14279;50.010;8.260;2023-02-28T11:53:48;101561.50;;;4.72;39.19
26657;BME280;14279;50.010;8.260;2023-02-28T11:56:33;101553.72;;;4.83;39.26
26657;BME280;14279;50.010;8.260;2023-02-28T12:04:59;101552.56;;;5.54;37.82
26657;BME280;14279;50.010;8.260;2023-02-28T12:07:44;101551.81;;;5.32;37.58
26657;BME280;14279;50.010;8.260;2023-02-28T12:13:06;101549.38;;;4.96;37.80
26657;BME280;14279;50.010;8.260;2023-02-28T12:15:46;101554.63;;;4.77;38.79
26657;BME280;14279;50.010;8.260;2023-02-28T12:21:00;101556.28;;;5.05;38.51
26657;BME280;14279;50.010;8.260;2023-02-28T12:23:45;101552.81;;;5.04;38.68
26657;BME280;14279;50.010;8.260;2023-02-28T12:26:34;101544.22;;;5.04;38.29
26657;BME280;14279;50.010;8.260;2023-02-28T12:31:56;101545.91;;;5.16;38.44
26657;BME280;14279;50.010;8.260;2023-02-28T12:35:02;101551.00;;;5.19;38.69
26657;BME280;14279;50.010;8.260;2023-02-28T12:37:38;101550.13;;;5.29;37.93
26657;BME280;14279;50.010;8.260;2023-02-28T12:40:13;101534.00;;;4.76;38.25
26657;BME280;14279;50.010;8.260;2023-02-28T12:42:42;101542.44;;;5.12;38.15
26657;BME280;14279;50.010;8.260;2023-02-28T12:47:42;101547.56;;;5.28;37.91
26657;BME280;14279;50.010;8.260;2023-02-28T12:50:10;101540.69;;;5.20;38.22
26657;BME280;14279;50.010;8.260;2023-02-28T12:53:03;101545.91;;;5.08;38.60
26657;BME280;14279;50.010;8.260;2023-02-28T12:55:54;101539.88;;;5.17;38.69
26657;BME280;14279;50.010;8.260;2023-02-28T12:58:37;101532.00;;;5.34;38.56
26657;BME280;14279;50.010;8.260;2023-02-28T13:09:52;101532.00;;;5.38;37.48
26657;BME280;14279;50.010;8.260;2023-02-28T13:12:18;101527.66;;;5.44;37.71
26657;BME280;14279;50.010;8.260;2023-02-28T13:14:45;101535.22;;;5.75;37.23
26657;BME280;14279;50.010;8.260;2023-02-28T13:17:24;101522.19;;;5.85;37.13
26657;BME280;14279;50.010;8.260;2023-02-28T13:22:37;101527.50;;;5.70;37.84
26657;BME280;14279;50.010;8.260;2023-02-28T13:27:53;101523.38;;;5.38;38.02
26657;BME280;14279;50.010;8.260;2023-02-28T13:36:06;101521.31;;;5.90;37.50
26657;BME280;14279;50.010;8.260;2023-02-28T13:38:34;101537.03;;;5.55;37.00
26657;BME280;14279;50.010;8.260;2023-02-28T13:46:27;101517.91;;;5.81;38.14
26657;BME280;14279;50.010;8.260;2023-02-28T13:48:52;101530.88;;;5.80;37.48
26657;BME280;14279;50.010;8.260;2023-02-28T13:51:40;101515.34;;;5.78;37.90
26657;BME280;14279;50.010;8.260;2023-02-28T13:57:23;101516.88;;;6.07;37.55
26657;BME280;14279;50.010;8.260;2023-02-28T14:02:44;101525.06;;;5.45;38.02
26657;BME280;14279;50.010;8.260;2023-02-28T14:05:15;101513.75;;;5.62;38.57
26657;BME280;14279;50.010;8.260;2023-02-28T14:07:50;101516.44;;;5.48;38.31
26657;BME280;14279;50.010;8.260;2023-02-28T14:12:57;101504.16;;;5.81;37.79
26657;BME280;14279;50.010;8.260;2023-02-28T14:44:35;101501.84;;;5.45;38.41
26657;BME280;14279;50.010;8.260;2023-02-28T14:47:03;101499.78;;;5.91;37.99
26657;BME280;14279;50.010;8.260;2023-02-28T14:49:45;101485.03;;;6.07;38.27
26657;BME280;14279;50.010;8.260;2023-02-28T14:52:26;101489.41;;;5.94;38.40
26657;BME280;14279;50.010;8.260;2023-02-28T14:55:10;101490.63;;;5.48;38.36
26657;BME280;14279;50.010;8.260;2023-02-28T14:57:44;101492.19;;;5.72;39.08
26657;BME280;14279;50.010;8.260;2023-02-28T15:00:27;101490.28;;;5.91;38.36
26657;BME280;14279;50.010;8.260;2023-02-28T15:03:21;101492.09;;;5.83;38.40
26657;BME280;14279;50.010;8.260;2023-02-28T15:06:18;101484.09;;;6.12;38.22
26657;BME280;14279;50.010;8.260;2023-02-28T15:09:17;101489.50;;;5.83;39.45
26657;BME280;14279;50.010;8.260;2023-02-28T15:15:47;101482.78;;;5.62;39.62
26657;BME280;14279;50.010;8.260;2023-02-28T15:21:18;101486.03;;;5.82;39.24
26657;BME280;14279;50.010;8.260;2023-02-28T15:24:15;101497.41;;;5.60;38.99
26657;BME280;14279;50.010;8.260;2023-02-28T15:27:04;101485.94;;;5.98;38.65
26657;BME280;14279;50.010;8.260;2023-02-28T15:29:36;101479.31;;;5.64;39.01
26657;BME280;14279;50.010;8.260;2023-02-28T15:32:07;101486.94;;;5.80;38.59